sensor_id;sensor_type;location;lat;lon;timestamp;P1;durP1;ratioP1;P2;durP2;ratioP2
4642;SDS011;2334;48.710;9.622;2023-11-19T00:00:06;11.73;;;4.37;;
4642;SDS011;2334;48.710;9.622;2023-11-19T00:02:36;8.13;;;5.17;;
4642;SDS011;2334;48.710;9.622;2023-11-19T00:05:04;9.77;;;6.17;;
4642;SDS011;2334;48.710;9.622;2023-11-19T00:07:34;6.23;;;4.97;;
4642;SDS011;2334;48.710;9.622;2023-11-19T00:10:01;19.17;;;5.97;;
4642;SDS011;2334;48.710;9.622;2023-11-19T00:12:35;11.10;;;5.43;;
4642;SDS011;2334;48.710;9.622;2023-11-19T00:15:02;11.10;;;5.90;;
4642;SDS011;2334;48.710;9.622;2023-11-19T00:17:31;8.93;;;5.67;;
4642;SDS011;2334;48.710;9.622;2023-11-19T00:19:58;8.73;;;5.93;;
4642;SDS011;2334;48.710;9.622;2023-11-19T00:22:25;9.57;;;6.50;;
4642;SDS011;2334;48.710;9.622;2023-11-19T00:24:52;10.33;;;5.57;;
4642;SDS011;2334;48.710;9.622;2023-11-19T00:27:19;10.83;;;5.93;;
4642;SDS011;2334;48.710;9.622;2023-11-19T00:29:46;9.23;;;6.23;;
4642;SDS011;2334;48.710;9.622;2023-11-19T00:32:14;9.80;;;5.80;;
4642;SDS011;2334;48.710;9.622;2023-11-19T00:34:44;10.30;;;6.20;;
4642;SDS011;2334;48.710;9.622;2023-11-19T00:37:12;12.40;;;6.67;;
4642;SDS011;2334;48.710;9.622;2023-11-19T00:39:40;14.47;;;6.17;;
4642;SDS011;2334;48.710;9.622;2023-11-19T00:42:07;10.97;;;6.30;;
4642;SDS011;2334;48.710;9.622;2023-11-19T00:44:35;12.80;;;7.23;;
4642;SDS011;2334;48.710;9.622;2023-11-19T00:47:02;11.53;;;5.97;;
4642;SDS011;2334;48.710;9.622;2023-11-19T00:49:30;8.83;;;6.20;;
4642;SDS011;2334;48.710;9.622;2023-11-19T00:51:59;11.70;;;6.33;;
4642;SDS011;2334;48.710;9.622;2023-11-19T00:54:27;9.23;;;5.90;;
4642;SDS011;2334;48.710;9.622;2023-11-19T00:56:54;9.77;;;7.23;;
4642;SDS011;2334;48.710;9.622;2023-11-19T00:59:21;11.20;;;6.97;;
4642;SDS011;2334;48.710;9.622;2023-11-19T01:01:48;6.37;;;5.33;;
4642;SDS011;2334;48.710;9.622;2023-11-19T01:04:16;14.07;;;6.77;;
4642;SDS011;2334;48.710;9.622;2023-11-19T01:06:43;9.87;;;5.47;;
4642;SDS011;2334;48.710;9.622;2023-11-19T01:09:11;10.97;;;6.40;;
4642;SDS011;2334;48.710;9.622;2023-11-19T01:11:38;9.27;;;5.10;;
4642;SDS011;2334;48.710;9.622;2023-11-19T01:14:05;10.27;;;6.37;;
4642;SDS011;2334;48.710;9.622;2023-11-19T01:16:32;10.27;;;6.67;;
4642;SDS011;2334;48.710;9.622;2023-11-19T01:18:58;9.60;;;5.60;;
4642;SDS011;2334;48.710;9.622;2023-11-19T01:21:29;11.10;;;6.60;;
4642;SDS011;2334;48.710;9.622;2023-11-19T01:23:56;11.10;;;6.77;;
4642;SDS011;2334;48.710;9.622;2023-11-19T01:26:25;10.53;;;6.80;;
4642;SDS011;2334;48.710;9.622;2023-11-19T01:28:52;11.17;;;6.10;;
4642;SDS011;2334;48.710;9.622;2023-11-19T01:31:19;9.30;;;6.10;;
4642;SDS011;2334;48.710;9.622;2023-11-19T01:33:46;9.73;;;6.20;;
4642;SDS011;2334;48.710;9.622;2023-11-19T01:36:13;10.63;;;6.20;;
4642;SDS011;2334;48.710;9.622;2023-11-19T01:38:40;13.20;;;8.27;;
4642;SDS011;2334;48.710;9.622;2023-11-19T01:41:07;15.47;;;7.73;;
4642;SDS011;2334;48.710;9.622;2023-11-19T01:43:36;12.73;;;7.10;;
4642;SDS011;2334;48.710;9.622;2023-11-19T01:46:06;10.30;;;7.37;;
4642;SDS011;2334;48.710;9.622;2023-11-19T01:48:35;13.07;;;7.93;;
4642;SDS011;2334;48.710;9.622;2023-11-19T01:51:06;12.40;;;7.93;;
4642;SDS011;2334;48.710;9.622;2023-11-19T01:53:34;10.33;;;6.40;;
4642;SDS011;2334;48.710;9.622;2023-11-19T01:56:03;16.17;;;7.57;;
4642;SDS011;2334;48.710;9.622;2023-11-19T01:58:31;7.50;;;5.33;;
4642;SDS011;2334;48.710;9.622;2023-11-19T02:00:59;12.23;;;7.33;;
4642;SDS011;2334;48.710;9.622;2023-11-19T02:03:28;12.00;;;6.70;;
4642;SDS011;2334;48.710;9.622;2023-11-19T02:05:57;12.20;;;6.90;;
4642;SDS011;2334;48.710;9.622;2023-11-19T02:08:25;10.90;;;6.90;;
4642;SDS011;2334;48.710;9.622;2023-11-19T02:10:52;12.00;;;7.17;;
4642;SDS011;2334;48.710;9.622;2023-11-19T02:13:20;13.07;;;7.57;;
4642;SDS011;2334;48.710;9.622;2023-11-19T02:15:47;15.63;;;8.40;;
4642;SDS011;2334;48.710;9.622;2023-11-19T02:18:22;34.57;;;14.53;;
4642;SDS011;2334;48.710;9.622;2023-11-19T02:20:53;29.93;;;12.60;;
4642;SDS011;2334;48.710;9.622;2023-11-19T02:23:20;19.87;;;9.70;;
4642;SDS011;2334;48.710;9.622;2023-11-19T02:25:54;12.33;;;7.50;;
4642;SDS011;2334;48.710;9.622;2023-11-19T02:28:31;14.90;;;7.40;;
4642;SDS011;2334;48.710;9.622;2023-11-19T02:30:59;13.03;;;7.60;;
4642;SDS011;2334;48.710;9.622;2023-11-19T02:33:26;21.27;;;10.10;;
4642;SDS011;2334;48.710;9.622;2023-11-19T02:35:54;16.80;;;9.70;;
4642;SDS011;2334;48.710;9.622;2023-11-19T02:38:21;21.73;;;9.60;;
4642;SDS011;2334;48.710;9.622;2023-11-19T02:40:48;16.37;;;9.67;;
4642;SDS011;2334;48.710;9.622;2023-11-19T02:43:15;16.83;;;8.40;;
4642;SDS011;2334;48.710;9.622;2023-11-19T02:45:44;23.43;;;11.03;;
4642;SDS011;2334;48.710;9.622;2023-11-19T02:48:11;23.63;;;10.43;;
4642;SDS011;2334;48.710;9.622;2023-11-19T02:50:39;17.90;;;8.87;;
4642;SDS011;2334;48.710;9.622;2023-11-19T02:53:06;16.17;;;8.87;;
4642;SDS011;2334;48.710;9.622;2023-11-19T02:55:33;17.50;;;8.17;;
4642;SDS011;2334;48.710;9.622;2023-11-19T02:58:03;15.50;;;8.83;;
4642;SDS011;2334;48.710;9.622;2023-11-19T03:00:34;14.93;;;7.50;;
4642;SDS011;2334;48.710;9.622;2023-11-19T03:03:04;19.00;;;8.50;;
4642;SDS011;2334;48.710;9.622;2023-11-19T03:05:42;21.60;;;8.80;;
4642;SDS011;2334;48.710;9.622;2023-11-19T03:08:10;19.83;;;8.30;;
4642;SDS011;2334;48.710;9.622;2023-11-19T03:10:37;19.93;;;9.50;;
4642;SDS011;2334;48.710;9.622;2023-11-19T03:13:04;23.73;;;9.50;;
4642;SDS011;2334;48.710;9.622;2023-11-19T03:15:32;11.03;;;6.27;;
4642;SDS011;2334;48.710;9.622;2023-11-19T03:17:59;8.30;;;4.63;;
4642;SDS011;2334;48.710;9.622;2023-11-19T03:20:27;7.90;;;4.70;;
4642;SDS011;2334;48.710;9.622;2023-11-19T03:22:55;4.13;;;3.37;;
4642;SDS011;2334;48.710;9.622;2023-11-19T03:25:24;4.57;;;3.40;;
4642;SDS011;2334;48.710;9.622;2023-11-19T03:27:52;4.13;;;2.93;;
4642;SDS011;2334;48.710;9.622;2023-11-19T03:30:19;4.67;;;3.37;;
4642;SDS011;2334;48.710;9.622;2023-11-19T03:32:47;6.07;;;3.93;;
4642;SDS011;2334;48.710;9.622;2023-11-19T03:35:14;3.37;;;2.70;;
4642;SDS011;2334;48.710;9.622;2023-11-19T03:37:42;3.43;;;3.13;;
4642;SDS011;2334;48.710;9.622;2023-11-19T03:40:09;3.37;;;3.07;;
4642;SDS011;2334;48.710;9.622;2023-11-19T03:42:37;2.53;;;2.33;;
4642;SDS011;2334;48.710;9.622;2023-11-19T03:45:05;4.23;;;2.73;;
4642;SDS011;2334;48.710;9.622;2023-11-19T03:47:33;3.43;;;2.20;;
4642;SDS011;2334;48.710;9.622;2023-11-19T03:50:00;3.23;;;2.83;;
4642;SDS011;2334;48.710;9.622;2023-11-19T03:52:27;3.20;;;2.00;;
4642;SDS011;2334;48.710;9.622;2023-11-19T03:54:56;2.57;;;2.37;;
4642;SDS011;2334;48.710;9.622;2023-11-19T03:57:23;2.30;;;2.10;;
4642;SDS011;2334;48.710;9.622;2023-11-19T03:59:50;2.37;;;2.20;;
4642;SDS011;2334;48.710;9.622;2023-11-19T04:02:17;1.80;;;1.70;;
4642;SDS011;2334;48.710;9.622;2023-11-19T04:04:44;3.10;;;2.03;;
4642;SDS011;2334;48.710;9.622;2023-11-19T04:07:11;2.90;;;1.80;;
4642;SDS011;2334;48.710;9.622;2023-11-19T04:09:37;2.13;;;1.97;;
4642;SDS011;2334;48.710;9.622;2023-11-19T04:12:06;2.50;;;1.93;;
4642;SDS011;2334;48.710;9.622;2023-11-19T04:14:34;4.73;;;2.23;;
4642;SDS011;2334;48.710;9.622;2023-11-19T04:17:02;2.33;;;1.70;;
4642;SDS011;2334;48.710;9.622;2023-11-19T04:19:29;3.17;;;2.40;;
4642;SDS011;2334;48.710;9.622;2023-11-19T04:21:59;5.23;;;2.60;;
4642;SDS011;2334;48.710;9.622;2023-11-19T04:24:26;2.73;;;2.03;;
4642;SDS011;2334;48.710;9.622;2023-11-19T04:26:53;2.80;;;2.17;;
4642;SDS011;2334;48.710;9.622;2023-11-19T04:29:21;1.67;;;1.50;;
4642;SDS011;2334;48.710;9.622;2023-11-19T04:31:48;1.60;;;1.50;;
4642;SDS011;2334;48.710;9.622;2023-11-19T04:34:15;2.60;;;2.07;;
4642;SDS011;2334;48.710;9.622;2023-11-19T04:36:42;1.83;;;1.73;;
4642;SDS011;2334;48.710;9.622;2023-11-19T04:39:09;3.07;;;1.80;;
4642;SDS011;2334;48.710;9.622;2023-11-19T04:41:45;1.60;;;1.37;;
4642;SDS011;2334;48.710;9.622;2023-11-19T04:44:12;1.60;;;1.50;;
4642;SDS011;2334;48.710;9.622;2023-11-19T04:46:42;1.53;;;1.43;;
4642;SDS011;2334;48.710;9.622;2023-11-19T04:49:09;1.30;;;1.20;;
4642;SDS011;2334;48.710;9.622;2023-11-19T04:51:38;2.10;;;1.47;;
4642;SDS011;2334;48.710;9.622;2023-11-19T04:54:06;1.30;;;1.20;;
4642;SDS011;2334;48.710;9.622;2023-11-19T04:56:33;2.83;;;1.03;;
4642;SDS011;2334;48.710;9.622;2023-11-19T04:59:00;0.93;;;0.90;;
4642;SDS011;2334;48.710;9.622;2023-11-19T05:01:27;1.20;;;1.10;;
4642;SDS011;2334;48.710;9.622;2023-11-19T05:03:56;0.97;;;0.97;;
4642;SDS011;2334;48.710;9.622;2023-11-19T05:06:25;2.50;;;1.27;;
4642;SDS011;2334;48.710;9.622;2023-11-19T05:08:53;1.20;;;0.77;;
4642;SDS011;2334;48.710;9.622;2023-11-19T05:11:20;2.10;;;0.70;;
4642;SDS011;2334;48.710;9.622;2023-11-19T05:13:47;1.10;;;0.80;;
4642;SDS011;2334;48.710;9.622;2023-11-19T05:16:14;0.70;;;0.70;;
4642;SDS011;2334;48.710;9.622;2023-11-19T05:18:40;1.00;;;0.70;;
4642;SDS011;2334;48.710;9.622;2023-11-19T05:21:09;1.33;;;0.80;;
4642;SDS011;2334;48.710;9.622;2023-11-19T05:23:36;1.63;;;0.83;;
4642;SDS011;2334;48.710;9.622;2023-11-19T05:26:03;0.97;;;0.60;;
4642;SDS011;2334;48.710;9.622;2023-11-19T05:28:30;0.70;;;0.70;;
4642;SDS011;2334;48.710;9.622;2023-11-19T05:30:57;0.70;;;0.50;;
4642;SDS011;2334;48.710;9.622;2023-11-19T05:33:24;0.60;;;0.60;;
4642;SDS011;2334;48.710;9.622;2023-11-19T05:35:51;2.20;;;0.60;;
4642;SDS011;2334;48.710;9.622;2023-11-19T05:38:19;0.70;;;0.70;;
4642;SDS011;2334;48.710;9.622;2023-11-19T05:40:46;0.50;;;0.50;;
4642;SDS011;2334;48.710;9.622;2023-11-19T05:43:14;0.60;;;0.60;;
4642;SDS011;2334;48.710;9.622;2023-11-19T05:45:42;0.50;;;0.50;;
4642;SDS011;2334;48.710;9.622;2023-11-19T05:48:09;0.50;;;0.50;;
4642;SDS011;2334;48.710;9.622;2023-11-19T05:50:36;0.60;;;0.60;;
4642;SDS011;2334;48.710;9.622;2023-11-19T05:53:03;0.50;;;0.50;;
4642;SDS011;2334;48.710;9.622;2023-11-19T05:55:35;0.60;;;0.60;;
4642;SDS011;2334;48.710;9.622;2023-11-19T05:58:09;0.87;;;0.70;;
4642;SDS011;2334;48.710;9.622;2023-11-19T06:00:37;0.80;;;0.60;;
4642;SDS011;2334;48.710;9.622;2023-11-19T06:03:04;0.50;;;0.50;;
4642;SDS011;2334;48.710;9.622;2023-11-19T06:05:31;0.70;;;0.70;;
4642;SDS011;2334;48.710;9.622;2023-11-19T06:07:58;2.10;;;0.70;;
4642;SDS011;2334;48.710;9.622;2023-11-19T06:10:25;0.57;;;0.57;;
4642;SDS011;2334;48.710;9.622;2023-11-19T06:12:57;0.50;;;0.50;;
4642;SDS011;2334;48.710;9.622;2023-11-19T06:15:24;0.80;;;0.60;;
4642;SDS011;2334;48.710;9.622;2023-11-19T06:17:51;0.43;;;0.43;;
4642;SDS011;2334;48.710;9.622;2023-11-19T06:20:18;0.40;;;0.40;;
4642;SDS011;2334;48.710;9.622;2023-11-19T06:22:46;0.60;;;0.60;;
4642;SDS011;2334;48.710;9.622;2023-11-19T06:25:12;1.13;;;0.70;;
4642;SDS011;2334;48.710;9.622;2023-11-19T06:27:41;0.60;;;0.60;;
4642;SDS011;2334;48.710;9.622;2023-11-19T06:30:10;1.03;;;1.03;;
4642;SDS011;2334;48.710;9.622;2023-11-19T06:32:37;0.70;;;0.70;;
4642;SDS011;2334;48.710;9.622;2023-11-19T06:35:05;0.40;;;0.40;;
4642;SDS011;2334;48.710;9.622;2023-11-19T06:37:32;1.50;;;1.07;;
4642;SDS011;2334;48.710;9.622;2023-11-19T06:39:59;0.70;;;0.70;;
4642;SDS011;2334;48.710;9.622;2023-11-19T06:42:26;0.70;;;0.70;;
4642;SDS011;2334;48.710;9.622;2023-11-19T06:44:52;0.60;;;0.60;;
4642;SDS011;2334;48.710;9.622;2023-11-19T06:47:24;2.00;;;0.97;;
4642;SDS011;2334;48.710;9.622;2023-11-19T06:49:52;0.93;;;0.93;;
4642;SDS011;2334;48.710;9.622;2023-11-19T06:52:19;0.50;;;0.50;;
4642;SDS011;2334;48.710;9.622;2023-11-19T06:54:46;0.50;;;0.50;;
4642;SDS011;2334;48.710;9.622;2023-11-19T06:57:13;0.50;;;0.50;;
4642;SDS011;2334;48.710;9.622;2023-11-19T06:59:40;0.50;;;0.50;;
4642;SDS011;2334;48.710;9.622;2023-11-19T07:02:08;0.50;;;0.50;;
4642;SDS011;2334;48.710;9.622;2023-11-19T07:04:36;0.40;;;0.40;;
4642;SDS011;2334;48.710;9.622;2023-11-19T07:07:03;0.60;;;0.60;;
4642;SDS011;2334;48.710;9.622;2023-11-19T07:09:30;0.40;;;0.40;;
4642;SDS011;2334;48.710;9.622;2023-11-19T07:11:58;0.50;;;0.50;;
4642;SDS011;2334;48.710;9.622;2023-11-19T07:14:26;0.77;;;0.60;;
4642;SDS011;2334;48.710;9.622;2023-11-19T07:16:53;0.70;;;0.50;;
4642;SDS011;2334;48.710;9.622;2023-11-19T07:19:20;0.50;;;0.50;;
4642;SDS011;2334;48.710;9.622;2023-11-19T07:21:49;0.60;;;0.60;;
4642;SDS011;2334;48.710;9.622;2023-11-19T07:24:16;0.80;;;0.60;;
4642;SDS011;2334;48.710;9.622;2023-11-19T07:26:43;0.87;;;0.70;;
4642;SDS011;2334;48.710;9.622;2023-11-19T07:29:10;0.40;;;0.40;;
4642;SDS011;2334;48.710;9.622;2023-11-19T07:31:37;0.50;;;0.50;;
4642;SDS011;2334;48.710;9.622;2023-11-19T07:34:04;1.03;;;0.50;;
4642;SDS011;2334;48.710;9.622;2023-11-19T07:36:31;0.53;;;0.53;;
4642;SDS011;2334;48.710;9.622;2023-11-19T07:39:00;0.40;;;0.40;;
4642;SDS011;2334;48.710;9.622;2023-11-19T07:41:27;0.90;;;0.90;;
4642;SDS011;2334;48.710;9.622;2023-11-19T07:43:54;0.80;;;0.73;;
4642;SDS011;2334;48.710;9.622;2023-11-19T07:46:21;0.50;;;0.50;;
4642;SDS011;2334;48.710;9.622;2023-11-19T07:48:48;0.60;;;0.60;;
4642;SDS011;2334;48.710;9.622;2023-11-19T07:51:15;0.70;;;0.70;;
4642;SDS011;2334;48.710;9.622;2023-11-19T07:53:42;2.43;;;0.50;;
4642;SDS011;2334;48.710;9.622;2023-11-19T07:56:10;1.03;;;0.77;;
4642;SDS011;2334;48.710;9.622;2023-11-19T07:58:37;0.50;;;0.50;;
4642;SDS011;2334;48.710;9.622;2023-11-19T08:01:04;0.43;;;0.43;;
4642;SDS011;2334;48.710;9.622;2023-11-19T08:03:32;0.70;;;0.53;;
4642;SDS011;2334;48.710;9.622;2023-11-19T08:06:00;2.13;;;0.90;;
4642;SDS011;2334;48.710;9.622;2023-11-19T08:08:27;0.50;;;0.50;;
4642;SDS011;2334;48.710;9.622;2023-11-19T08:10:55;0.60;;;0.60;;
4642;SDS011;2334;48.710;9.622;2023-11-19T08:13:23;0.60;;;0.60;;
4642;SDS011;2334;48.710;9.622;2023-11-19T08:15:50;1.47;;;0.70;;
4642;SDS011;2334;48.710;9.622;2023-11-19T08:18:17;0.77;;;0.73;;
4642;SDS011;2334;48.710;9.622;2023-11-19T08:20:45;1.87;;;1.07;;
4642;SDS011;2334;48.710;9.622;2023-11-19T08:23:17;0.50;;;0.50;;
4642;SDS011;2334;48.710;9.622;2023-11-19T08:25:44;0.50;;;0.50;;
4642;SDS011;2334;48.710;9.622;2023-11-19T08:28:11;0.60;;;0.60;;
4642;SDS011;2334;48.710;9.622;2023-11-19T08:30:39;1.50;;;1.40;;
4642;SDS011;2334;48.710;9.622;2023-11-19T08:33:06;0.60;;;0.60;;
4642;SDS011;2334;48.710;9.622;2023-11-19T08:35:33;1.10;;;1.10;;
4642;SDS011;2334;48.710;9.622;2023-11-19T08:38:00;0.90;;;0.90;;
4642;SDS011;2334;48.710;9.622;2023-11-19T08:40:27;0.90;;;0.90;;
4642;SDS011;2334;48.710;9.622;2023-11-19T08:42:54;2.53;;;0.80;;
4642;SDS011;2334;48.710;9.622;2023-11-19T08:45:21;0.70;;;0.70;;
4642;SDS011;2334;48.710;9.622;2023-11-19T08:47:50;1.40;;;1.30;;
4642;SDS011;2334;48.710;9.622;2023-11-19T08:50:16;1.80;;;0.80;;
4642;SDS011;2334;48.710;9.622;2023-11-19T08:52:43;1.17;;;1.17;;
4642;SDS011;2334;48.710;9.622;2023-11-19T08:55:10;1.23;;;1.10;;
4642;SDS011;2334;48.710;9.622;2023-11-19T08:57:38;1.13;;;1.13;;
4642;SDS011;2334;48.710;9.622;2023-11-19T09:00:06;0.87;;;0.87;;
4642;SDS011;2334;48.710;9.622;2023-11-19T09:02:33;1.20;;;1.00;;
4642;SDS011;2334;48.710;9.622;2023-11-19T09:05:03;2.00;;;1.80;;
4642;SDS011;2334;48.710;9.622;2023-11-19T09:07:32;1.20;;;1.20;;
4642;SDS011;2334;48.710;9.622;2023-11-19T09:09:59;1.20;;;1.10;;
4642;SDS011;2334;48.710;9.622;2023-11-19T09:12:26;1.33;;;0.60;;
4642;SDS011;2334;48.710;9.622;2023-11-19T09:14:53;0.50;;;0.50;;
4642;SDS011;2334;48.710;9.622;2023-11-19T09:17:20;3.57;;;0.50;;
4642;SDS011;2334;48.710;9.622;2023-11-19T09:19:46;0.50;;;0.50;;
4642;SDS011;2334;48.710;9.622;2023-11-19T09:22:15;0.60;;;0.60;;
4642;SDS011;2334;48.710;9.622;2023-11-19T09:24:41;0.60;;;0.60;;
4642;SDS011;2334;48.710;9.622;2023-11-19T09:27:09;2.40;;;1.10;;
4642;SDS011;2334;48.710;9.622;2023-11-19T09:29:36;0.60;;;0.60;;
4642;SDS011;2334;48.710;9.622;2023-11-19T09:32:03;0.87;;;0.87;;
4642;SDS011;2334;48.710;9.622;2023-11-19T09:34:31;1.37;;;1.10;;
4642;SDS011;2334;48.710;9.622;2023-11-19T09:36:58;0.70;;;0.70;;
4642;SDS011;2334;48.710;9.622;2023-11-19T09:39:26;0.97;;;0.53;;
4642;SDS011;2334;48.710;9.622;2023-11-19T09:41:53;1.27;;;1.03;;
4642;SDS011;2334;48.710;9.622;2023-11-19T09:44:20;3.90;;;2.50;;
4642;SDS011;2334;48.710;9.622;2023-11-19T09:46:47;2.70;;;1.67;;
4642;SDS011;2334;48.710;9.622;2023-11-19T09:49:14;1.93;;;1.10;;
4642;SDS011;2334;48.710;9.622;2023-11-19T09:51:47;0.70;;;0.70;;
4642;SDS011;2334;48.710;9.622;2023-11-19T09:54:14;1.00;;;1.00;;
4642;SDS011;2334;48.710;9.622;2023-11-19T09:56:42;0.90;;;0.50;;
4642;SDS011;2334;48.710;9.622;2023-11-19T09:59:10;0.60;;;0.60;;
4642;SDS011;2334;48.710;9.622;2023-11-19T10:01:37;0.60;;;0.60;;
4642;SDS011;2334;48.710;9.622;2023-11-19T10:04:05;0.60;;;0.60;;
4642;SDS011;2334;48.710;9.622;2023-11-19T10:06:33;1.17;;;0.97;;
4642;SDS011;2334;48.710;9.622;2023-11-19T10:09:00;0.80;;;0.70;;
4642;SDS011;2334;48.710;9.622;2023-11-19T10:11:29;0.60;;;0.60;;
4642;SDS011;2334;48.710;9.622;2023-11-19T10:13:58;0.50;;;0.50;;
4642;SDS011;2334;48.710;9.622;2023-11-19T10:16:28;0.60;;;0.60;;
4642;SDS011;2334;48.710;9.622;2023-11-19T10:18:56;0.50;;;0.50;;
4642;SDS011;2334;48.710;9.622;2023-11-19T10:21:23;0.50;;;0.50;;
4642;SDS011;2334;48.710;9.622;2023-11-19T10:23:53;0.40;;;0.40;;
4642;SDS011;2334;48.710;9.622;2023-11-19T10:26:22;2.70;;;0.90;;
4642;SDS011;2334;48.710;9.622;2023-11-19T10:28:49;0.60;;;0.60;;
4642;SDS011;2334;48.710;9.622;2023-11-19T10:31:18;0.70;;;0.70;;
4642;SDS011;2334;48.710;9.622;2023-11-19T10:33:49;0.50;;;0.50;;
4642;SDS011;2334;48.710;9.622;2023-11-19T10:36:16;3.13;;;0.70;;
4642;SDS011;2334;48.710;9.622;2023-11-19T10:38:51;0.50;;;0.50;;
4642;SDS011;2334;48.710;9.622;2023-11-19T10:41:26;0.57;;;0.57;;
4642;SDS011;2334;48.710;9.622;2023-11-19T10:43:53;0.60;;;0.60;;
4642;SDS011;2334;48.710;9.622;2023-11-19T10:46:22;0.70;;;0.70;;
4642;SDS011;2334;48.710;9.622;2023-11-19T10:48:49;0.50;;;0.50;;
4642;SDS011;2334;48.710;9.622;2023-11-19T10:51:18;2.30;;;0.70;;
4642;SDS011;2334;48.710;9.622;2023-11-19T10:53:48;0.83;;;0.70;;
4642;SDS011;2334;48.710;9.622;2023-11-19T10:56:16;4.40;;;0.70;;
4642;SDS011;2334;48.710;9.622;2023-11-19T10:58:45;0.47;;;0.47;;
4642;SDS011;2334;48.710;9.622;2023-11-19T11:01:16;0.50;;;0.50;;
4642;SDS011;2334;48.710;9.622;2023-11-19T11:03:47;0.80;;;0.80;;
4642;SDS011;2334;48.710;9.622;2023-11-19T11:06:16;1.83;;;0.80;;
4642;SDS011;2334;48.710;9.622;2023-11-19T11:08:44;0.60;;;0.60;;
4642;SDS011;2334;48.710;9.622;2023-11-19T11:11:13;0.53;;;0.53;;
4642;SDS011;2334;48.710;9.622;2023-11-19T11:13:42;0.53;;;0.53;;
4642;SDS011;2334;48.710;9.622;2023-11-19T11:16:10;0.70;;;0.70;;
4642;SDS011;2334;48.710;9.622;2023-11-19T11:18:37;0.80;;;0.80;;
4642;SDS011;2334;48.710;9.622;2023-11-19T11:21:07;2.03;;;1.00;;
4642;SDS011;2334;48.710;9.622;2023-11-19T11:23:40;1.30;;;1.23;;
4642;SDS011;2334;48.710;9.622;2023-11-19T11:26:42;2.63;;;1.10;;
4642;SDS011;2334;48.710;9.622;2023-11-19T11:29:34;1.47;;;0.70;;
4642;SDS011;2334;48.710;9.622;2023-11-19T11:32:08;0.50;;;0.50;;
4642;SDS011;2334;48.710;9.622;2023-11-19T11:34:58;2.50;;;1.20;;
4642;SDS011;2334;48.710;9.622;2023-11-19T11:37:42;1.03;;;0.90;;
4642;SDS011;2334;48.710;9.622;2023-11-19T11:40:13;3.53;;;2.50;;
4642;SDS011;2334;48.710;9.622;2023-11-19T11:42:41;1.67;;;1.07;;
4642;SDS011;2334;48.710;9.622;2023-11-19T11:45:08;3.10;;;2.80;;
4642;SDS011;2334;48.710;9.622;2023-11-19T11:50:35;1.07;;;0.63;;
4642;SDS011;2334;48.710;9.622;2023-11-19T11:53:22;1.20;;;0.83;;
4642;SDS011;2334;48.710;9.622;2023-11-19T11:55:53;1.00;;;0.90;;
4642;SDS011;2334;48.710;9.622;2023-11-19T11:58:28;0.60;;;0.60;;
4642;SDS011;2334;48.710;9.622;2023-11-19T12:00:57;1.13;;;0.90;;
4642;SDS011;2334;48.710;9.622;2023-11-19T12:03:27;5.50;;;1.00;;
4642;SDS011;2334;48.710;9.622;2023-11-19T12:05:54;0.97;;;0.97;;
4642;SDS011;2334;48.710;9.622;2023-11-19T12:08:26;1.20;;;0.57;;
4642;SDS011;2334;48.710;9.622;2023-11-19T12:10:55;0.70;;;0.70;;
4642;SDS011;2334;48.710;9.622;2023-11-19T12:13:47;1.10;;;0.80;;
4642;SDS011;2334;48.710;9.622;2023-11-19T12:16:20;1.47;;;1.20;;
4642;SDS011;2334;48.710;9.622;2023-11-19T12:18:47;1.00;;;0.77;;
4642;SDS011;2334;48.710;9.622;2023-11-19T12:21:28;0.60;;;0.60;;
4642;SDS011;2334;48.710;9.622;2023-11-19T12:23:57;1.77;;;1.67;;
4642;SDS011;2334;48.710;9.622;2023-11-19T12:26:35;2.63;;;0.60;;
4642;SDS011;2334;48.710;9.622;2023-11-19T12:29:04;0.50;;;0.50;;
4642;SDS011;2334;48.710;9.622;2023-11-19T12:31:31;0.77;;;0.77;;
4642;SDS011;2334;48.710;9.622;2023-11-19T12:33:57;4.13;;;0.80;;
4642;SDS011;2334;48.710;9.622;2023-11-19T12:36:25;2.67;;;1.27;;
4642;SDS011;2334;48.710;9.622;2023-11-19T12:38:52;0.53;;;0.53;;
4642;SDS011;2334;48.710;9.622;2023-11-19T12:41:21;0.60;;;0.60;;
4642;SDS011;2334;48.710;9.622;2023-11-19T12:43:48;0.73;;;0.73;;
4642;SDS011;2334;48.710;9.622;2023-11-19T12:46:16;0.70;;;0.70;;
4642;SDS011;2334;48.710;9.622;2023-11-19T12:48:44;2.40;;;0.60;;
4642;SDS011;2334;48.710;9.622;2023-11-19T12:51:12;2.20;;;0.80;;
4642;SDS011;2334;48.710;9.622;2023-11-19T12:53:47;2.27;;;0.90;;
4642;SDS011;2334;48.710;9.622;2023-11-19T12:56:15;1.10;;;1.00;;
4642;SDS011;2334;48.710;9.622;2023-11-19T12:58:44;1.60;;;0.70;;
4642;SDS011;2334;48.710;9.622;2023-11-19T13:01:15;2.53;;;0.60;;
4642;SDS011;2334;48.710;9.622;2023-11-19T13:03:42;2.80;;;0.80;;
4642;SDS011;2334;48.710;9.622;2023-11-19T13:06:10;4.10;;;0.70;;
4642;SDS011;2334;48.710;9.622;2023-11-19T13:08:38;2.97;;;0.70;;
4642;SDS011;2334;48.710;9.622;2023-11-19T13:11:05;0.50;;;0.50;;
4642;SDS011;2334;48.710;9.622;2023-11-19T13:13:33;1.00;;;0.60;;
4642;SDS011;2334;48.710;9.622;2023-11-19T13:16:21;0.60;;;0.57;;
4642;SDS011;2334;48.710;9.622;2023-11-19T13:18:48;3.37;;;0.90;;
4642;SDS011;2334;48.710;9.622;2023-11-19T13:21:15;0.60;;;0.60;;
4642;SDS011;2334;48.710;9.622;2023-11-19T13:23:42;1.70;;;0.63;;
4642;SDS011;2334;48.710;9.622;2023-11-19T13:26:09;1.90;;;0.60;;
4642;SDS011;2334;48.710;9.622;2023-11-19T13:28:38;0.73;;;0.70;;
4642;SDS011;2334;48.710;9.622;2023-11-19T13:31:06;2.50;;;0.63;;
4642;SDS011;2334;48.710;9.622;2023-11-19T13:33:33;0.90;;;0.83;;
4642;SDS011;2334;48.710;9.622;2023-11-19T13:36:01;1.33;;;0.50;;
4642;SDS011;2334;48.710;9.622;2023-11-19T13:38:31;0.60;;;0.60;;
4642;SDS011;2334;48.710;9.622;2023-11-19T13:40:58;0.50;;;0.50;;
4642;SDS011;2334;48.710;9.622;2023-11-19T13:43:25;0.60;;;0.60;;
4642;SDS011;2334;48.710;9.622;2023-11-19T13:45:53;0.63;;;0.57;;
4642;SDS011;2334;48.710;9.622;2023-11-19T13:48:21;1.03;;;0.50;;
4642;SDS011;2334;48.710;9.622;2023-11-19T13:50:48;1.00;;;0.50;;
4642;SDS011;2334;48.710;9.622;2023-11-19T13:53:15;0.67;;;0.60;;
4642;SDS011;2334;48.710;9.622;2023-11-19T13:55:43;1.53;;;0.50;;
4642;SDS011;2334;48.710;9.622;2023-11-19T13:58:10;0.87;;;0.73;;
4642;SDS011;2334;48.710;9.622;2023-11-19T14:00:37;2.57;;;0.70;;
4642;SDS011;2334;48.710;9.622;2023-11-19T14:03:04;0.70;;;0.57;;
4642;SDS011;2334;48.710;9.622;2023-11-19T14:05:32;0.67;;;0.50;;
4642;SDS011;2334;48.710;9.622;2023-11-19T14:07:59;1.60;;;0.70;;
4642;SDS011;2334;48.710;9.622;2023-11-19T14:10:26;0.60;;;0.60;;
4642;SDS011;2334;48.710;9.622;2023-11-19T14:12:53;0.70;;;0.60;;
4642;SDS011;2334;48.710;9.622;2023-11-19T14:15:21;1.83;;;0.70;;
4642;SDS011;2334;48.710;9.622;2023-11-19T14:17:50;0.60;;;0.60;;
4642;SDS011;2334;48.710;9.622;2023-11-19T14:20:17;0.97;;;0.90;;
4642;SDS011;2334;48.710;9.622;2023-11-19T14:22:47;0.67;;;0.60;;
4642;SDS011;2334;48.710;9.622;2023-11-19T14:25:15;2.17;;;0.90;;
4642;SDS011;2334;48.710;9.622;2023-11-19T14:27:42;0.80;;;0.80;;
4642;SDS011;2334;48.710;9.622;2023-11-19T14:30:11;2.90;;;0.70;;
4642;SDS011;2334;48.710;9.622;2023-11-19T14:32:39;0.80;;;0.80;;
4642;SDS011;2334;48.710;9.622;2023-11-19T14:35:09;9.70;;;2.07;;
4642;SDS011;2334;48.710;9.622;2023-11-19T14:37:39;9.40;;;2.17;;
4642;SDS011;2334;48.710;9.622;2023-11-19T14:40:08;3.33;;;0.80;;
4642;SDS011;2334;48.710;9.622;2023-11-19T14:42:36;1.77;;;1.67;;
4642;SDS011;2334;48.710;9.622;2023-11-19T14:45:04;0.73;;;0.70;;
4642;SDS011;2334;48.710;9.622;2023-11-19T14:47:32;4.10;;;1.20;;
4642;SDS011;2334;48.710;9.622;2023-11-19T14:49:59;0.80;;;0.70;;
4642;SDS011;2334;48.710;9.622;2023-11-19T14:52:26;2.10;;;0.90;;
4642;SDS011;2334;48.710;9.622;2023-11-19T14:54:52;1.73;;;0.90;;
4642;SDS011;2334;48.710;9.622;2023-11-19T14:57:23;2.13;;;1.00;;
4642;SDS011;2334;48.710;9.622;2023-11-19T14:59:50;1.43;;;0.83;;
4642;SDS011;2334;48.710;9.622;2023-11-19T15:02:16;2.60;;;0.80;;
4642;SDS011;2334;48.710;9.622;2023-11-19T15:04:44;1.83;;;1.00;;
4642;SDS011;2334;48.710;9.622;2023-11-19T15:07:11;0.80;;;0.80;;
4642;SDS011;2334;48.710;9.622;2023-11-19T15:09:38;0.80;;;0.80;;
4642;SDS011;2334;48.710;9.622;2023-11-19T15:12:05;7.40;;;0.80;;
4642;SDS011;2334;48.710;9.622;2023-11-19T15:14:34;2.20;;;0.80;;
4642;SDS011;2334;48.710;9.622;2023-11-19T15:17:01;1.03;;;0.80;;
4642;SDS011;2334;48.710;9.622;2023-11-19T15:19:28;0.70;;;0.70;;
4642;SDS011;2334;48.710;9.622;2023-11-19T15:21:55;1.27;;;1.17;;